Aigaion — SYMC — position and weather

sailwx.info

Track history (hours):
 
Tides and Currents Weather Stations Pressure Air Temp Water Temp Dewpoint Dewpoint Depression Visibility Wind Speed Wind Dir Waves Ship Positions

Aigaion

Last reported at 2016-Jun-25 07:07 UTC. Time now 2016-Jun-25 14:21 UTC.
Position N 38°52' E 118°37'.

Length 289 m; draft 17.8 m.

Type: Cargo ship. MMSI: 240174000.

Date/timePositionNaut miles runAvg speedWind from/ knotsBaromVisibWave heightAir tempDewpointWater temp
2016-Jun-25 07:07N 38°52' E 118°37'0 0.1
2016-Jun-25 06:28N 38°52' E 118°37'0 0.2
2016-Jun-25 04:31N 38°52' E 118°38'0 0.0
2016-Jun-25 02:31N 38°52' E 118°38'0 0.1
2016-Jun-24 22:13N 38°51' E 118°37'0 0.2
2016-Jun-24 21:31N 38°51' E 118°37'0 0.0
2016-Jun-24 09:31N 38°51' E 118°37'0 0.1
2016-Jun-24 08:25N 38°51' E 118°37'0 0.0
2016-Jun-24 07:28N 38°51' E 118°37'134 3.5
2016-Jun-22 17:06N 38°27' E 121°26'5 9.1
2016-Jun-22 16:32N 38°25' E 121°33'9 9.1
2016-Jun-22 15:34N 38°22' E 121°43'  
2016-Jun-19 11:29N 27°39' E 123°28'19 9.8
2016-Jun-19 09:32N 27°20' E 123°24'  
Track history (hours):
 
Tides and Currents Weather Stations Pressure Air Temp Water Temp Dewpoint Dewpoint Depression Visibility Wind Speed Wind Dir Waves Ship Positions

Aigaion

Last reported at 2016-Jun-25 07:07 UTC. Time now 2016-Jun-25 14:21 UTC.
Position N 38°52' E 118°37'.

Length 289 m; draft 17.8 m.

Type: Cargo ship. MMSI: 240174000.

Date/timePositionNaut miles runAvg speedWind from/ knotsBaromVisibWave heightAir tempDewpointWater temp
2016-Jun-25 07:07N 38°52' E 118°37'0 0.1
2016-Jun-25 06:28N 38°52' E 118°37'0 0.2
2016-Jun-25 04:31N 38°52' E 118°38'0 0.0
2016-Jun-25 02:31N 38°52' E 118°38'0 0.1
2016-Jun-24 22:13N 38°51' E 118°37'0 0.2
2016-Jun-24 21:31N 38°51' E 118°37'0 0.0
2016-Jun-24 09:31N 38°51' E 118°37'0 0.1
2016-Jun-24 08:25N 38°51' E 118°37'0 0.0
2016-Jun-24 07:28N 38°51' E 118°37'134 3.5
2016-Jun-22 17:06N 38°27' E 121°26'5 9.1
2016-Jun-22 16:32N 38°25' E 121°33'9 9.1
2016-Jun-22 15:34N 38°22' E 121°43'  
2016-Jun-19 11:29N 27°39' E 123°28'19 9.8
2016-Jun-19 09:32N 27°20' E 123°24'  

Dump ship's entire track history